sensor_id;sensor_type;location;lat;lon;timestamp;pressure;altitude;pressure_sealevel;temperature;humidity
59029;BME280;45919;51.420;5.454;2022-11-15T00:00:32;100689.81;;;9.31;90.38
59029;BME280;45919;51.420;5.454;2022-11-15T00:01:34;100685.53;;;9.35;90.47
59029;BME280;45919;51.420;5.454;2022-11-15T00:02:35;100694.28;;;9.38;90.09
59029;BME280;45919;51.420;5.454;2022-11-15T00:03:37;100692.56;;;9.39;90.09
59029;BME280;45919;51.420;5.454;2022-11-15T00:04:39;100687.38;;;9.40;89.99
59029;BME280;45919;51.420;5.454;2022-11-15T00:05:41;100660.97;;;9.21;89.96
59029;BME280;45919;51.420;5.454;2022-11-15T00:06:42;100690.91;;;9.42;90.02
59029;BME280;45919;51.420;5.454;2022-11-15T00:07:44;100684.81;;;9.43;90.06
59029;BME280;45919;51.420;5.454;2022-11-15T00:09:00;100680.50;;;9.44;89.71
59029;BME280;45919;51.420;5.454;2022-11-15T00:10:03;100663.78;;;9.32;89.80
59029;BME280;45919;51.420;5.454;2022-11-15T00:11:04;100661.16;;;9.32;89.62
59029;BME280;45919;51.420;5.454;2022-11-15T00:12:06;100686.63;;;9.48;89.79
59029;BME280;45919;51.420;5.454;2022-11-15T00:13:10;100684.94;;;9.50;89.69
59029;BME280;45919;51.420;5.454;2022-11-15T00:14:12;100686.66;;;9.49;89.57
59029;BME280;45919;51.420;5.454;2022-11-15T00:15:14;100684.06;;;9.49;89.56
59029;BME280;45919;51.420;5.454;2022-11-15T00:16:15;100672.59;;;9.41;89.53
59029;BME280;45919;51.420;5.454;2022-11-15T00:17:17;100679.75;;;9.51;89.42
59029;BME280;45919;51.420;5.454;2022-11-15T00:18:19;100689.34;;;9.54;89.46
59029;BME280;45919;51.420;5.454;2022-11-15T00:19:20;100698.03;;;9.54;89.39
59029;BME280;45919;51.420;5.454;2022-11-15T00:20:22;100687.63;;;9.56;89.21
59029;BME280;45919;51.420;5.454;2022-11-15T00:21:23;100688.53;;;9.56;89.32
59029;BME280;45919;51.420;5.454;2022-11-15T00:22:32;100680.84;;;9.64;89.39
59029;BME280;45919;51.420;5.454;2022-11-15T00:23:34;100684.22;;;9.60;89.20
59029;BME280;45919;51.420;5.454;2022-11-15T00:24:36;100677.22;;;9.57;89.30
59029;BME280;45919;51.420;5.454;2022-11-15T00:25:37;100681.63;;;9.60;89.19
59029;BME280;45919;51.420;5.454;2022-11-15T00:26:39;100686.00;;;9.63;89.31
59029;BME280;45919;51.420;5.454;2022-11-15T00:27:40;100676.41;;;9.60;89.16
59029;BME280;45919;51.420;5.454;2022-11-15T00:28:42;100679.94;;;9.62;89.15
59029;BME280;45919;51.420;5.454;2022-11-15T00:29:44;100683.44;;;9.64;89.08
59029;BME280;45919;51.420;5.454;2022-11-15T00:30:45;100675.63;;;9.66;89.20
59029;BME280;45919;51.420;5.454;2022-11-15T00:31:47;100681.72;;;9.66;88.98
59029;BME280;45919;51.420;5.454;2022-11-15T00:32:49;100682.59;;;9.67;88.77
59029;BME280;45919;51.420;5.454;2022-11-15T00:33:50;100682.63;;;9.70;88.82
59029;BME280;45919;51.420;5.454;2022-11-15T00:34:52;100681.81;;;9.71;89.04
59029;BME280;45919;51.420;5.454;2022-11-15T00:35:53;100677.41;;;9.68;88.99
59029;BME280;45919;51.420;5.454;2022-11-15T00:37:00;100677.50;;;9.73;88.90
59029;BME280;45919;51.420;5.454;2022-11-15T00:38:02;100681.00;;;9.75;88.90
59029;BME280;45919;51.420;5.454;2022-11-15T00:39:04;100670.47;;;9.71;88.80
59029;BME280;45919;51.420;5.454;2022-11-15T00:40:08;100674.94;;;9.76;88.93
59029;BME280;45919;51.420;5.454;2022-11-15T00:41:09;100669.66;;;9.73;88.84
59029;BME280;45919;51.420;5.454;2022-11-15T00:42:11;100681.88;;;9.77;88.97
59029;BME280;45919;51.420;5.454;2022-11-15T00:43:13;100680.16;;;9.78;89.08
59029;BME280;45919;51.420;5.454;2022-11-15T00:44:14;100683.69;;;9.80;89.28
59029;BME280;45919;51.420;5.454;2022-11-15T00:45:16;100674.94;;;9.78;89.03
59029;BME280;45919;51.420;5.454;2022-11-15T00:46:17;100667.16;;;9.81;88.91
59029;BME280;45919;51.420;5.454;2022-11-15T00:47:19;100674.16;;;9.82;89.34
59029;BME280;45919;51.420;5.454;2022-11-15T00:48:20;100668.94;;;9.82;89.34
59029;BME280;45919;51.420;5.454;2022-11-15T00:49:22;100661.09;;;9.82;89.38
59029;BME280;45919;51.420;5.454;2022-11-15T00:50:24;100659.31;;;9.79;89.53
59029;BME280;45919;51.420;5.454;2022-11-15T00:51:25;100665.47;;;9.85;89.71
59029;BME280;45919;51.420;5.454;2022-11-15T00:52:27;100651.44;;;9.76;89.98
59029;BME280;45919;51.420;5.454;2022-11-15T00:53:29;100661.06;;;9.79;90.06
59029;BME280;45919;51.420;5.454;2022-11-15T00:54:30;100663.75;;;9.85;90.29
59029;BME280;45919;51.420;5.454;2022-11-15T00:55:32;100649.72;;;9.77;90.23
59029;BME280;45919;51.420;5.454;2022-11-15T00:56:33;100664.66;;;9.87;90.03
59029;BME280;45919;51.420;5.454;2022-11-15T00:57:35;100667.25;;;9.87;90.37
59029;BME280;45919;51.420;5.454;2022-11-15T00:58:37;100665.56;;;9.89;90.47
59029;BME280;45919;51.420;5.454;2022-11-15T00:59:39;100666.44;;;9.90;90.47
59029;BME280;45919;51.420;5.454;2022-11-15T01:00:40;100666.47;;;9.91;90.44
59029;BME280;45919;51.420;5.454;2022-11-15T01:01:42;100664.72;;;9.92;90.82
59029;BME280;45919;51.420;5.454;2022-11-15T01:02:43;100663.84;;;9.91;90.96
59029;BME280;45919;51.420;5.454;2022-11-15T01:03:45;100669.09;;;9.95;91.04
59029;BME280;45919;51.420;5.454;2022-11-15T01:04:47;100666.53;;;9.96;91.08
59029;BME280;45919;51.420;5.454;2022-11-15T01:05:48;100663.06;;;9.97;91.06
59029;BME280;45919;51.420;5.454;2022-11-15T01:06:50;100665.69;;;9.97;91.32
59029;BME280;45919;51.420;5.454;2022-11-15T01:07:53;100664.00;;;10.01;91.72
59029;BME280;45919;51.420;5.454;2022-11-15T01:08:54;100662.25;;;10.01;91.68
59029;BME280;45919;51.420;5.454;2022-11-15T01:09:56;100668.34;;;10.02;91.79
59029;BME280;45919;51.420;5.454;2022-11-15T01:11:06;100656.28;;;10.10;92.16
59029;BME280;45919;51.420;5.454;2022-11-15T01:12:07;100646.56;;;10.00;92.07
59029;BME280;45919;51.420;5.454;2022-11-15T01:13:09;100656.19;;;10.02;91.83
59029;BME280;45919;51.420;5.454;2022-11-15T01:14:11;100661.44;;;10.05;92.00
59029;BME280;45919;51.420;5.454;2022-11-15T01:15:12;100651.88;;;10.04;92.14
59029;BME280;45919;51.420;5.454;2022-11-15T01:16:16;100656.31;;;10.12;92.15
59029;BME280;45919;51.420;5.454;2022-11-15T01:17:19;100629.09;;;9.96;92.08
59029;BME280;45919;51.420;5.454;2022-11-15T01:18:21;100639.78;;;10.11;92.37
59029;BME280;45919;51.420;5.454;2022-11-15T01:19:23;100637.09;;;10.07;92.75
59029;BME280;45919;51.420;5.454;2022-11-15T01:20:24;100654.53;;;10.11;92.37
59029;BME280;45919;51.420;5.454;2022-11-15T01:21:26;100652.81;;;10.11;92.89
59029;BME280;45919;51.420;5.454;2022-11-15T01:22:27;100653.72;;;10.12;93.39
59029;BME280;45919;51.420;5.454;2022-11-15T01:23:29;100655.44;;;10.11;93.61
59029;BME280;45919;51.420;5.454;2022-11-15T01:24:31;100656.31;;;10.12;93.76
59029;BME280;45919;51.420;5.454;2022-11-15T01:25:32;100651.97;;;10.12;93.53
59029;BME280;45919;51.420;5.454;2022-11-15T01:26:34;100644.97;;;10.10;93.50
59029;BME280;45919;51.420;5.454;2022-11-15T01:27:35;100644.09;;;10.09;94.38
59029;BME280;45919;51.420;5.454;2022-11-15T01:28:38;100645.88;;;10.12;94.21
59029;BME280;45919;51.420;5.454;2022-11-15T01:29:40;100638.91;;;10.14;94.26
59029;BME280;45919;51.420;5.454;2022-11-15T01:30:42;100640.69;;;10.15;94.42
59029;BME280;45919;51.420;5.454;2022-11-15T01:31:43;100645.91;;;10.15;94.94
59029;BME280;45919;51.420;5.454;2022-11-15T01:32:45;100652.88;;;10.17;95.14
59029;BME280;45919;51.420;5.454;2022-11-15T01:33:47;100648.56;;;10.20;95.67
59029;BME280;45919;51.420;5.454;2022-11-15T01:34:49;100643.34;;;10.20;95.29
59029;BME280;45919;51.420;5.454;2022-11-15T01:35:50;100642.53;;;10.21;95.76
59029;BME280;45919;51.420;5.454;2022-11-15T01:36:52;100617.09;;;10.09;96.53
59029;BME280;45919;51.420;5.454;2022-11-15T01:37:53;100639.06;;;10.25;96.29
59029;BME280;45919;51.420;5.454;2022-11-15T01:38:59;100637.41;;;10.30;96.48
59029;BME280;45919;51.420;5.454;2022-11-15T01:40:00;100631.31;;;10.29;96.70
59029;BME280;45919;51.420;5.454;2022-11-15T01:41:03;100612.91;;;10.19;96.78
59029;BME280;45919;51.420;5.454;2022-11-15T01:42:04;100628.72;;;10.33;96.90
59029;BME280;45919;51.420;5.454;2022-11-15T01:43:26;100637.63;;;10.47;97.34
59029;BME280;45919;51.420;5.454;2022-11-15T01:45:35;100632.28;;;10.39;97.44
59029;BME280;45919;51.420;5.454;2022-11-15T01:46:37;100635.78;;;10.40;97.50
59029;BME280;45919;51.420;5.454;2022-11-15T01:47:43;100638.47;;;10.45;98.20
59029;BME280;45919;51.420;5.454;2022-11-15T01:48:48;100635.88;;;10.46;97.87
59029;BME280;45919;51.420;5.454;2022-11-15T01:50:56;100597.34;;;10.28;98.40
59029;BME280;45919;51.420;5.454;2022-11-15T01:52:00;100623.69;;;10.47;98.54
59029;BME280;45919;51.420;5.454;2022-11-15T01:53:03;100634.25;;;10.53;98.52
59029;BME280;45919;51.420;5.454;2022-11-15T01:54:08;100627.31;;;10.57;98.75
59029;BME280;45919;51.420;5.454;2022-11-15T01:55:18;100611.53;;;10.49;98.66
59029;BME280;45919;51.420;5.454;2022-11-15T01:56:23;100629.09;;;10.59;98.83
59029;BME280;45919;51.420;5.454;2022-11-15T01:57:26;100613.34;;;10.51;98.23
59029;BME280;45919;51.420;5.454;2022-11-15T01:58:28;100625.59;;;10.59;98.53
59029;BME280;45919;51.420;5.454;2022-11-15T01:59:30;100622.09;;;10.58;98.46
59029;BME280;45919;51.420;5.454;2022-11-15T02:00:32;100633.47;;;10.63;99.02
59029;BME280;45919;51.420;5.454;2022-11-15T02:01:34;100630.03;;;10.66;98.89
59029;BME280;45919;51.420;5.454;2022-11-15T02:02:36;100596.81;;;10.54;99.08
59029;BME280;45919;51.420;5.454;2022-11-15T02:03:48;100627.56;;;10.77;99.13
59029;BME280;45919;51.420;5.454;2022-11-15T02:04:51;100631.84;;;10.72;98.99
59029;BME280;45919;51.420;5.454;2022-11-15T02:05:53;100627.50;;;10.72;99.14
59029;BME280;45919;51.420;5.454;2022-11-15T02:06:55;100629.25;;;10.75;98.97
59029;BME280;45919;51.420;5.454;2022-11-15T02:07:57;100625.81;;;10.78;98.86
59029;BME280;45919;51.420;5.454;2022-11-15T02:08:59;100627.56;;;10.79;98.77
59029;BME280;45919;51.420;5.454;2022-11-15T02:10:06;100614.56;;;10.83;98.90
59029;BME280;45919;51.420;5.454;2022-11-15T02:11:08;100615.38;;;10.79;98.86
59029;BME280;45919;51.420;5.454;2022-11-15T02:12:14;100611.09;;;10.86;98.91
59029;BME280;45919;51.420;5.454;2022-11-15T02:13:17;100613.69;;;10.86;98.77
59029;BME280;45919;51.420;5.454;2022-11-15T02:14:19;100618.94;;;10.87;99.19
59029;BME280;45919;51.420;5.454;2022-11-15T02:15:24;100608.47;;;10.84;99.10
59029;BME280;45919;51.420;5.454;2022-11-15T02:17:56;100616.41;;;10.92;98.86
59029;BME280;45919;51.420;5.454;2022-11-15T02:23:55;100609.56;;;11.05;98.92
59029;BME280;45919;51.420;5.454;2022-11-15T02:26:25;100616.59;;;11.14;99.16
59029;BME280;45919;51.420;5.454;2022-11-15T02:29:17;100618.31;;;11.09;98.68
59029;BME280;45919;51.420;5.454;2022-11-15T02:30:47;100613.09;;;11.10;99.07
59029;BME280;45919;51.420;5.454;2022-11-15T02:32:04;100618.34;;;11.15;99.00
59029;BME280;45919;51.420;5.454;2022-11-15T02:37:07;100604.34;;;11.10;98.77
59029;BME280;45919;51.420;5.454;2022-11-15T02:39:35;100606.16;;;11.19;98.73
59029;BME280;45919;51.420;5.454;2022-11-15T02:42:04;100607.13;;;11.29;99.11
59029;BME280;45919;51.420;5.454;2022-11-15T02:43:56;100601.91;;;11.29;98.70
59029;BME280;45919;51.420;5.454;2022-11-15T02:45:03;100611.47;;;11.23;98.56
59029;BME280;45919;51.420;5.454;2022-11-15T02:46:13;100604.47;;;11.22;98.73
59029;BME280;45919;51.420;5.454;2022-11-15T02:47:16;100605.31;;;11.20;98.98
59029;BME280;45919;51.420;5.454;2022-11-15T02:48:20;100598.34;;;11.22;98.67
59029;BME280;45919;51.420;5.454;2022-11-15T02:49:28;100594.88;;;11.23;98.58
59029;BME280;45919;51.420;5.454;2022-11-15T02:50:32;100602.75;;;11.24;98.69
59029;BME280;45919;51.420;5.454;2022-11-15T02:51:34;100594.00;;;11.24;98.68
59029;BME280;45919;51.420;5.454;2022-11-15T02:52:35;100595.78;;;11.23;98.57
59029;BME280;45919;51.420;5.454;2022-11-15T02:53:37;100589.66;;;11.21;98.53
59029;BME280;45919;51.420;5.454;2022-11-15T02:54:38;100596.66;;;11.27;98.63
59029;BME280;45919;51.420;5.454;2022-11-15T02:55:48;100598.50;;;11.38;98.50
59029;BME280;45919;51.420;5.454;2022-11-15T02:56:55;100595.88;;;11.34;98.59
59029;BME280;45919;51.420;5.454;2022-11-15T03:00:41;100587.16;;;11.37;98.17
59029;BME280;45919;51.420;5.454;2022-11-15T03:02:09;100584.53;;;11.37;97.98
59029;BME280;45919;51.420;5.454;2022-11-15T03:04:50;100580.19;;;11.38;98.24
59029;BME280;45919;51.420;5.454;2022-11-15T03:06:08;100545.22;;;11.24;98.54
59029;BME280;45919;51.420;5.454;2022-11-15T03:07:23;100537.38;;;11.23;98.25
59029;BME280;45919;51.420;5.454;2022-11-15T03:08:32;100569.75;;;11.44;98.41
59029;BME280;45919;51.420;5.454;2022-11-15T03:11:03;100546.13;;;11.33;97.98
59029;BME280;45919;51.420;5.454;2022-11-15T03:12:41;100570.72;;;11.55;98.31
59029;BME280;45919;51.420;5.454;2022-11-15T03:14:24;100568.97;;;11.56;98.32
59029;BME280;45919;51.420;5.454;2022-11-15T03:15:32;100564.56;;;11.48;98.36
59029;BME280;45919;51.420;5.454;2022-11-15T03:16:49;100567.19;;;11.50;98.31
59029;BME280;45919;51.420;5.454;2022-11-15T03:18:15;100565.41;;;11.47;98.40
59029;BME280;45919;51.420;5.454;2022-11-15T03:20:24;100572.38;;;11.44;98.70
59029;BME280;45919;51.420;5.454;2022-11-15T03:21:28;100571.47;;;11.40;98.68
59029;BME280;45919;51.420;5.454;2022-11-15T03:22:37;100491.03;;;11.03;98.81
59029;BME280;45919;51.420;5.454;2022-11-15T03:23:41;100576.75;;;11.45;98.72
59029;BME280;45919;51.420;5.454;2022-11-15T03:24:47;100575.91;;;11.49;99.05
59029;BME280;45919;51.420;5.454;2022-11-15T03:25:53;100576.75;;;11.48;99.00
59029;BME280;45919;51.420;5.454;2022-11-15T03:26:57;100575.88;;;11.47;98.95
59029;BME280;45919;51.420;5.454;2022-11-15T03:28:03;100575.03;;;11.50;98.92
59029;BME280;45919;51.420;5.454;2022-11-15T03:29:11;100550.53;;;11.35;99.08
59029;BME280;45919;51.420;5.454;2022-11-15T03:30:14;100575.03;;;11.48;98.78
59029;BME280;45919;51.420;5.454;2022-11-15T03:31:19;100583.78;;;11.54;98.89
59029;BME280;45919;51.420;5.454;2022-11-15T03:32:52;100576.00;;;11.63;98.67
59029;BME280;45919;51.420;5.454;2022-11-15T03:33:56;100580.31;;;11.56;98.72
59029;BME280;45919;51.420;5.454;2022-11-15T03:35:04;100566.31;;;11.51;98.73
59029;BME280;45919;51.420;5.454;2022-11-15T03:36:07;100568.94;;;11.51;98.80
59029;BME280;45919;51.420;5.454;2022-11-15T03:37:10;100577.72;;;11.58;98.78
59029;BME280;45919;51.420;5.454;2022-11-15T03:38:25;100578.63;;;11.68;98.87
59029;BME280;45919;51.420;5.454;2022-11-15T03:39:27;100576.00;;;11.60;98.54
59029;BME280;45919;51.420;5.454;2022-11-15T03:40:59;100563.75;;;11.60;98.99
59029;BME280;45919;51.420;5.454;2022-11-15T03:42:11;100580.41;;;11.67;98.72
59029;BME280;45919;51.420;5.454;2022-11-15T03:44:59;100578.75;;;11.83;98.72
59029;BME280;45919;51.420;5.454;2022-11-15T03:46:07;100563.75;;;11.62;98.36
59029;BME280;45919;51.420;5.454;2022-11-15T03:47:14;100576.97;;;11.82;98.45
59029;BME280;45919;51.420;5.454;2022-11-15T03:48:21;100576.91;;;11.68;98.19
59029;BME280;45919;51.420;5.454;2022-11-15T03:49:31;100583.88;;;11.68;98.48
59029;BME280;45919;51.420;5.454;2022-11-15T03:50:34;100580.34;;;11.63;98.57
59029;BME280;45919;51.420;5.454;2022-11-15T03:51:36;100582.97;;;11.63;98.52
59029;BME280;45919;51.420;5.454;2022-11-15T03:52:39;100579.50;;;11.64;98.50
59029;BME280;45919;51.420;5.454;2022-11-15T03:53:41;100581.22;;;11.63;98.47
59029;BME280;45919;51.420;5.454;2022-11-15T03:54:55;100589.97;;;11.68;98.12
59029;BME280;45919;51.420;5.454;2022-11-15T03:55:57;100572.50;;;11.63;98.33
59029;BME280;45919;51.420;5.454;2022-11-15T03:56:59;100572.50;;;11.64;98.17
59029;BME280;45919;51.420;5.454;2022-11-15T03:58:01;100567.28;;;11.64;98.22
59029;BME280;45919;51.420;5.454;2022-11-15T03:59:02;100571.66;;;11.67;97.68
59029;BME280;45919;51.420;5.454;2022-11-15T04:00:05;100576.88;;;11.64;98.07
59029;BME280;45919;51.420;5.454;2022-11-15T04:01:07;100574.28;;;11.67;98.15
59029;BME280;45919;51.420;5.454;2022-11-15T04:02:08;100549.75;;;11.51;98.05
59029;BME280;45919;51.420;5.454;2022-11-15T04:03:10;100540.13;;;11.45;98.03
59029;BME280;45919;51.420;5.454;2022-11-15T04:04:11;100570.78;;;11.69;97.89
59029;BME280;45919;51.420;5.454;2022-11-15T04:05:13;100544.59;;;11.60;97.88
59029;BME280;45919;51.420;5.454;2022-11-15T04:06:15;100567.31;;;11.70;97.71
59029;BME280;45919;51.420;5.454;2022-11-15T04:07:16;100572.56;;;11.72;97.86
59029;BME280;45919;51.420;5.454;2022-11-15T04:08:18;100562.94;;;11.68;97.75
59029;BME280;45919;51.420;5.454;2022-11-15T04:09:19;100557.69;;;11.63;97.93
59029;BME280;45919;51.420;5.454;2022-11-15T04:10:21;100569.06;;;11.73;97.79
59029;BME280;45919;51.420;5.454;2022-11-15T04:11:22;100578.69;;;11.72;97.50
59029;BME280;45919;51.420;5.454;2022-11-15T04:12:24;100576.06;;;11.74;97.48
59029;BME280;45919;51.420;5.454;2022-11-15T04:13:32;100569.06;;;11.73;97.65
59029;BME280;45919;51.420;5.454;2022-11-15T04:14:33;100565.59;;;11.74;97.77
59029;BME280;45919;51.420;5.454;2022-11-15T04:15:35;100564.72;;;11.74;97.55
59029;BME280;45919;51.420;5.454;2022-11-15T04:16:36;100564.72;;;11.74;97.59
59029;BME280;45919;51.420;5.454;2022-11-15T04:18:44;100570.84;;;11.74;97.26
59029;BME280;45919;51.420;5.454;2022-11-15T04:19:46;100570.84;;;11.74;97.18
59029;BME280;45919;51.420;5.454;2022-11-15T04:21:07;100572.56;;;11.77;97.16
59029;BME280;45919;51.420;5.454;2022-11-15T04:22:28;100565.59;;;11.76;97.54
59029;BME280;45919;51.420;5.454;2022-11-15T04:23:48;100569.94;;;11.75;97.33
59029;BME280;45919;51.420;5.454;2022-11-15T04:24:53;100575.19;;;11.75;97.46
59029;BME280;45919;51.420;5.454;2022-11-15T04:25:55;100570.84;;;11.76;97.65
59029;BME280;45919;51.420;5.454;2022-11-15T04:26:59;100566.44;;;11.73;97.70
59029;BME280;45919;51.420;5.454;2022-11-15T04:28:01;100570.84;;;11.76;97.51
59029;BME280;45919;51.420;5.454;2022-11-15T04:29:02;100568.22;;;11.76;97.44
59029;BME280;45919;51.420;5.454;2022-11-15T04:30:22;100575.22;;;11.78;97.03
59029;BME280;45919;51.420;5.454;2022-11-15T04:31:24;100553.34;;;11.65;97.33
59029;BME280;45919;51.420;5.454;2022-11-15T04:32:25;100569.13;;;11.78;97.11
59029;BME280;45919;51.420;5.454;2022-11-15T04:33:27;100573.47;;;11.77;97.12
59029;BME280;45919;51.420;5.454;2022-11-15T04:34:29;100570.00;;;11.78;97.12
59029;BME280;45919;51.420;5.454;2022-11-15T04:35:31;100568.22;;;11.76;97.23
59029;BME280;45919;51.420;5.454;2022-11-15T04:36:32;100570.84;;;11.79;97.38
59029;BME280;45919;51.420;5.454;2022-11-15T04:37:54;100538.47;;;11.56;97.53
59029;BME280;45919;51.420;5.454;2022-11-15T04:38:55;100577.84;;;11.80;97.16
59029;BME280;45919;51.420;5.454;2022-11-15T04:39:57;100576.97;;;11.79;97.33
59029;BME280;45919;51.420;5.454;2022-11-15T04:40:59;100569.94;;;11.75;97.42
59029;BME280;45919;51.420;5.454;2022-11-15T04:42:00;100573.47;;;11.79;97.38
59029;BME280;45919;51.420;5.454;2022-11-15T04:43:03;100583.94;;;11.80;97.31
59029;BME280;45919;51.420;5.454;2022-11-15T04:44:04;100562.97;;;11.71;97.44
59029;BME280;45919;51.420;5.454;2022-11-15T04:45:06;100575.22;;;11.80;97.13
59029;BME280;45919;51.420;5.454;2022-11-15T04:46:08;100578.69;;;11.80;97.28
59029;BME280;45919;51.420;5.454;2022-11-15T04:47:09;100572.63;;;11.81;97.32
59029;BME280;45919;51.420;5.454;2022-11-15T04:48:11;100572.63;;;11.80;97.36
59029;BME280;45919;51.420;5.454;2022-11-15T04:49:13;100578.75;;;11.82;97.36
59029;BME280;45919;51.420;5.454;2022-11-15T04:50:15;100571.72;;;11.79;97.42
59029;BME280;45919;51.420;5.454;2022-11-15T04:51:16;100571.72;;;11.78;97.34
59029;BME280;45919;51.420;5.454;2022-11-15T04:52:18;100576.13;;;11.83;97.20
59029;BME280;45919;51.420;5.454;2022-11-15T04:53:20;100568.28;;;11.82;97.68
59029;BME280;45919;51.420;5.454;2022-11-15T04:54:23;100570.00;;;11.83;97.32
59029;BME280;45919;51.420;5.454;2022-11-15T04:55:24;100571.75;;;11.84;97.61
59029;BME280;45919;51.420;5.454;2022-11-15T04:56:26;100547.25;;;11.69;97.38
59029;BME280;45919;51.420;5.454;2022-11-15T04:57:27;100569.13;;;11.84;97.36
59029;BME280;45919;51.420;5.454;2022-11-15T04:58:29;100562.16;;;11.80;97.40
59029;BME280;45919;51.420;5.454;2022-11-15T04:59:31;100578.75;;;11.85;97.59
59029;BME280;45919;51.420;5.454;2022-11-15T05:00:32;100566.50;;;11.84;97.73
59029;BME280;45919;51.420;5.454;2022-11-15T05:01:34;100546.41;;;11.70;97.23
59029;BME280;45919;51.420;5.454;2022-11-15T05:02:36;100562.16;;;11.81;97.48
59029;BME280;45919;51.420;5.454;2022-11-15T05:03:56;100570.91;;;11.87;97.53
59029;BME280;45919;51.420;5.454;2022-11-15T05:05:17;100563.06;;;11.87;97.43
59029;BME280;45919;51.420;5.454;2022-11-15T05:06:18;100573.53;;;11.87;97.43
59029;BME280;45919;51.420;5.454;2022-11-15T05:07:20;100563.06;;;11.87;97.47
59029;BME280;45919;51.420;5.454;2022-11-15T05:08:21;100564.78;;;11.86;97.53
59029;BME280;45919;51.420;5.454;2022-11-15T05:09:23;100537.63;;;11.64;97.67
59029;BME280;45919;51.420;5.454;2022-11-15T05:10:24;100561.31;;;11.87;97.58
59029;BME280;45919;51.420;5.454;2022-11-15T05:11:26;100567.41;;;11.86;97.50
59029;BME280;45919;51.420;5.454;2022-11-15T05:12:31;100558.69;;;11.89;97.62
59029;BME280;45919;51.420;5.454;2022-11-15T05:13:32;100559.56;;;11.88;97.45
59029;BME280;45919;51.420;5.454;2022-11-15T05:14:34;100571.78;;;11.87;97.56
59029;BME280;45919;51.420;5.454;2022-11-15T05:15:36;100567.41;;;11.88;97.88
59029;BME280;45919;51.420;5.454;2022-11-15T05:16:38;100573.53;;;11.90;97.71
59029;BME280;45919;51.420;5.454;2022-11-15T05:17:39;100570.91;;;11.90;97.68
59029;BME280;45919;51.420;5.454;2022-11-15T05:18:41;100567.44;;;11.91;97.55
59029;BME280;45919;51.420;5.454;2022-11-15T05:19:43;100565.69;;;11.91;97.76
59029;BME280;45919;51.420;5.454;2022-11-15T05:20:45;100561.31;;;11.92;97.74
59029;BME280;45919;51.420;5.454;2022-11-15T05:21:47;100557.81;;;11.87;97.96
59029;BME280;45919;51.420;5.454;2022-11-15T05:22:49;100566.56;;;11.90;97.91
59029;BME280;45919;51.420;5.454;2022-11-15T05:23:50;100551.75;;;11.91;97.82
59029;BME280;45919;51.420;5.454;2022-11-15T05:24:52;100550.84;;;11.92;97.80
59029;BME280;45919;51.420;5.454;2022-11-15T05:25:58;100553.53;;;11.98;98.16
59029;BME280;45919;51.420;5.454;2022-11-15T05:27:01;100547.38;;;11.93;97.70
59029;BME280;45919;51.420;5.454;2022-11-15T05:28:04;100556.09;;;11.95;97.79
59029;BME280;45919;51.420;5.454;2022-11-15T05:29:05;100550.88;;;11.93;97.82
59029;BME280;45919;51.420;5.454;2022-11-15T05:30:07;100545.63;;;11.95;97.74
59029;BME280;45919;51.420;5.454;2022-11-15T05:31:13;100541.31;;;12.00;97.65
59029;BME280;45919;51.420;5.454;2022-11-15T05:32:16;100545.66;;;12.00;97.63
59029;BME280;45919;51.420;5.454;2022-11-15T05:33:19;100543.91;;;11.95;97.61
59029;BME280;45919;51.420;5.454;2022-11-15T05:34:20;100529.03;;;11.90;97.45
59029;BME280;45919;51.420;5.454;2022-11-15T05:35:33;100546.56;;;12.06;97.55
59029;BME280;45919;51.420;5.454;2022-11-15T05:36:42;100537.81;;;12.01;97.18
59029;BME280;45919;51.420;5.454;2022-11-15T05:37:44;100545.66;;;12.00;97.24
59029;BME280;45919;51.420;5.454;2022-11-15T05:38:46;100538.66;;;11.97;96.90
59029;BME280;45919;51.420;5.454;2022-11-15T05:39:49;100541.31;;;12.00;96.93
59029;BME280;45919;51.420;5.454;2022-11-15T05:40:50;100540.44;;;12.00;96.91
59029;BME280;45919;51.420;5.454;2022-11-15T05:41:57;100540.44;;;12.03;97.12
59029;BME280;45919;51.420;5.454;2022-11-15T05:43:03;100529.91;;;11.93;97.05
59029;BME280;45919;51.420;5.454;2022-11-15T05:44:07;100534.31;;;11.96;97.09
59029;BME280;45919;51.420;5.454;2022-11-15T05:45:10;100542.16;;;11.99;97.06
59029;BME280;45919;51.420;5.454;2022-11-15T05:46:13;100542.16;;;11.96;97.36
59029;BME280;45919;51.420;5.454;2022-11-15T05:47:26;100525.56;;;11.97;97.30
59029;BME280;45919;51.420;5.454;2022-11-15T05:48:30;100552.69;;;12.05;97.05
59029;BME280;45919;51.420;5.454;2022-11-15T05:49:35;100552.69;;;12.02;97.01
59029;BME280;45919;51.420;5.454;2022-11-15T05:50:41;100554.41;;;12.06;97.05
59029;BME280;45919;51.420;5.454;2022-11-15T05:51:46;100564.03;;;12.06;97.17
59029;BME280;45919;51.420;5.454;2022-11-15T05:52:48;100564.00;;;12.04;96.84
59029;BME280;45919;51.420;5.454;2022-11-15T05:53:51;100563.16;;;12.07;97.07
59029;BME280;45919;51.420;5.454;2022-11-15T05:54:55;100567.50;;;12.08;97.21
59029;BME280;45919;51.420;5.454;2022-11-15T05:55:57;100554.41;;;12.06;97.12
59029;BME280;45919;51.420;5.454;2022-11-15T05:56:59;100563.16;;;12.07;97.39
59029;BME280;45919;51.420;5.454;2022-11-15T05:58:01;100560.53;;;12.08;97.00
59029;BME280;45919;51.420;5.454;2022-11-15T05:59:03;100557.03;;;12.08;97.28
59029;BME280;45919;51.420;5.454;2022-11-15T06:00:06;100487.06;;;11.68;96.98
59029;BME280;45919;51.420;5.454;2022-11-15T06:01:08;100555.31;;;12.07;96.79
59029;BME280;45919;51.420;5.454;2022-11-15T06:02:10;100566.66;;;12.09;97.20
59029;BME280;45919;51.420;5.454;2022-11-15T06:03:12;100565.78;;;12.08;97.31
59029;BME280;45919;51.420;5.454;2022-11-15T06:04:15;100570.13;;;12.08;97.18
59029;BME280;45919;51.420;5.454;2022-11-15T06:05:17;100569.28;;;12.07;97.31
59029;BME280;45919;51.420;5.454;2022-11-15T06:06:18;100573.63;;;12.07;97.41